Time;durP1;ratioP1;P1;durP2;ratioP2;P2;SDS_P1;SDS_P2;PMS_P1;PMS_P2;Temp;Humidity;BMP_temperature;BMP_pressure;BME280_temperature;BME280_humidity;BME280_pressure;Samples;Min_cycle;Max_cycle;Signal;HPM_P1;HPM_P2
2022/10/08 00:03:51;;;;;;;;;;;14.20;99.90;;;;;;8436690;28;19928;-80
2022/10/08 00:07:53;;;;;;;;;;;14.20;99.90;;;;;;8429279;28;20256;-79
2022/10/08 00:11:56;;;;;;;;;;;14.10;99.90;;;;;;8424238;28;20638;-80
2022/10/08 00:15:58;;;;;;;;;;;14.10;99.90;;;;;;8416146;28;19920;-79
2022/10/08 00:20:00;;;;;;;;;;;14.00;99.90;;;;;;8407193;28;20020;-80
2022/10/08 00:24:02;;;;;;;;;;;13.90;99.90;;;;;;8434681;28;20030;-80
2022/10/08 00:28:04;;;;;;;;;;;13.90;99.90;;;;;;8422623;28;19920;-79
2022/10/08 00:32:06;;;;;;;;;;;13.80;99.90;;;;;;8435356;28;19920;-80
2022/10/08 00:36:09;;;;;;;;;;;13.70;99.90;;;;;;8429226;28;19920;-79
2022/10/08 00:40:11;;;;;;;;;;;13.70;99.90;;;;;;8418192;28;20014;-80
2022/10/08 00:44:31;;;;;;;;;;;13.60;99.90;;;;;;8433128;28;19924;-81
2022/10/08 00:48:33;;;;;;;;;;;13.60;99.90;;;;;;8435199;28;20037;-81
2022/10/08 00:52:38;;;;;;;;;;;13.60;99.90;;;;;;8417292;28;19920;-80
2022/10/08 00:56:40;;;;;;;;;;;13.60;99.90;;;;;;8414446;28;19962;-81
2022/10/08 01:00:43;;;;;;;;;;;13.60;99.90;;;;;;8431382;28;20420;-79
2022/10/08 01:04:45;;;;;;;;;;;13.50;99.90;;;;;;8408975;28;19924;-80
2022/10/08 01:08:50;;;;;;;;;;;13.60;99.90;;;;;;8426100;28;19924;-80
2022/10/08 01:13:03;;;;;;;;;;;13.50;99.90;;;;;;8440536;28;19926;-80
2022/10/08 01:17:09;;;;;;;;;;;13.60;99.90;;;;;;8416902;28;19935;-80
2022/10/08 01:21:13;;;;;;;;;;;13.50;99.90;;;;;;8426241;28;19920;-79
2022/10/08 01:25:33;;;;;;;;;;;13.50;99.90;;;;;;8411053;28;20645;-79
2022/10/08 01:29:38;;;;;;;;;;;13.50;99.90;;;;;;8430487;28;19978;-79
2022/10/08 01:33:53;;;;;;;;;;;13.50;99.90;;;;;;8435412;28;19920;-80
2022/10/08 01:37:57;;;;;;;;;;;13.50;99.90;;;;;;8428604;28;19920;-80
2022/10/08 01:42:00;;;;;;;;;;;13.40;99.90;;;;;;8431175;28;19964;-80
2022/10/08 01:46:06;;;;;;;;;;;13.40;99.90;;;;;;8429214;28;19931;-79
2022/10/08 02:00:16;;;;;;;;;;;13.50;99.90;;;;;;8416704;28;19922;-79
2022/10/08 02:04:33;;;;;;;;;;;13.50;99.90;;;;;;8435437;28;20397;-79
2022/10/08 02:08:35;;;;;;;;;;;13.50;99.90;;;;;;8420444;28;19919;-79
2022/10/08 02:12:38;;;;;;;;;;;13.50;99.90;;;;;;8429245;28;19924;-80
2022/10/08 02:16:42;;;;;;;;;;;13.50;99.90;;;;;;8421223;28;20011;-79
2022/10/08 02:20:44;;;;;;;;;;;13.50;99.90;;;;;;8428558;28;19920;-79
2022/10/08 02:24:51;;;;;;;;;;;13.40;99.90;;;;;;8435959;28;19924;-79
2022/10/08 02:28:56;;;;;;;;;;;13.40;99.90;;;;;;8432690;28;19923;-80
2022/10/08 02:33:03;;;;;;;;;;;13.40;99.90;;;;;;8416028;28;20385;-79
2022/10/08 02:37:08;;;;;;;;;;;13.40;99.90;;;;;;8435190;28;19923;-80
2022/10/08 02:41:10;;;;;;;;;;;13.40;99.90;;;;;;8430364;28;19980;-80
2022/10/08 02:45:14;;;;;;;;;;;13.40;99.90;;;;;;8416221;28;20006;-81
2022/10/08 02:49:18;;;;;;;;;;;13.40;99.90;;;;;;8431419;28;19927;-80
2022/10/08 02:53:22;;;;;;;;;;;13.40;99.90;;;;;;8439367;28;19923;-80
2022/10/08 02:57:29;;;;;;;;;;;13.30;99.90;;;;;;8415372;28;19926;-80
2022/10/08 03:06:41;;;;;;;;;;;13.30;99.90;;;;;;8424732;28;19918;-79
2022/10/08 03:10:43;;;;;;;;;;;13.20;99.90;;;;;;8437091;28;19933;-80
2022/10/08 03:14:46;;;;;;;;;;;13.20;99.90;;;;;;8429537;28;20322;-80
2022/10/08 03:18:49;;;;;;;;;;;13.10;99.90;;;;;;8414816;28;19942;-80
2022/10/08 03:22:52;;;;;;;;;;;13.10;99.90;;;;;;8416536;28;19928;-80
2022/10/08 03:26:54;;;;;;;;;;;13.10;99.90;;;;;;8433053;28;19927;-80
2022/10/08 03:30:55;;;;;;;;;;;13.10;99.90;;;;;;8424090;28;19920;-79
2022/10/08 03:34:57;;;;;;;;;;;13.00;99.90;;;;;;8428596;28;19965;-80
2022/10/08 03:38:58;;;;;;;;;;;13.00;99.90;;;;;;8417131;28;20373;-80
2022/10/08 03:43:00;;;;;;;;;;;13.00;99.90;;;;;;8414205;28;19926;-80
2022/10/08 03:47:02;;;;;;;;;;;13.00;99.90;;;;;;8411650;28;19979;-79
2022/10/08 03:51:06;;;;;;;;;;;13.00;99.90;;;;;;8395810;28;21971;-79
2022/10/08 03:55:08;;;;;;;;;;;13.00;99.90;;;;;;8404211;28;20415;-79
2022/10/08 03:59:10;;;;;;;;;;;13.00;99.90;;;;;;8418202;28;19927;-79
2022/10/08 04:03:11;;;;;;;;;;;13.00;99.90;;;;;;8435299;27;19930;-80
2022/10/08 04:07:13;;;;;;;;;;;13.00;99.90;;;;;;8404360;28;19932;-80
2022/10/08 04:21:22;;;;;;;;;;;12.90;99.90;;;;;;8420011;28;19953;-78
2022/10/08 04:25:23;;;;;;;;;;;12.80;99.90;;;;;;8411894;28;20018;-79
2022/10/08 04:29:25;;;;;;;;;;;12.70;99.90;;;;;;8414030;28;20527;-80
2022/10/08 04:38:24;;;;;;;;;;;12.60;99.90;;;;;;8433359;28;19964;-80
2022/10/08 04:42:25;;;;;;;;;;;12.60;99.90;;;;;;8417476;28;19920;-79
2022/10/08 04:46:27;;;;;;;;;;;12.50;99.90;;;;;;8418314;28;20365;-80
2022/10/08 04:50:28;;;;;;;;;;;12.50;99.90;;;;;;8416356;28;19942;-79
2022/10/08 04:54:30;;;;;;;;;;;12.50;99.90;;;;;;8410385;28;20397;-79
2022/10/08 04:58:32;;;;;;;;;;;12.40;99.90;;;;;;8435123;27;19928;-80
2022/10/08 05:02:34;;;;;;;;;;;12.40;99.90;;;;;;8440953;28;19928;-80
2022/10/08 05:06:36;;;;;;;;;;;12.40;99.90;;;;;;8437692;28;19923;-80
2022/10/08 05:10:38;;;;;;;;;;;12.40;99.90;;;;;;8427481;28;19926;-80
2022/10/08 05:14:40;;;;;;;;;;;12.40;99.90;;;;;;8428582;28;20253;-79
2022/10/08 05:18:41;;;;;;;;;;;12.40;99.90;;;;;;8418910;28;20267;-80
2022/10/08 05:22:43;;;;;;;;;;;12.40;99.90;;;;;;8432481;28;19924;-80
2022/10/08 05:26:45;;;;;;;;;;;12.40;99.90;;;;;;8430901;28;20264;-79
2022/10/08 05:31:00;;;;;;;;;;;12.40;99.90;;;;;;8394330;28;20372;-80
2022/10/08 05:35:01;;;;;;;;;;;12.40;99.90;;;;;;8427030;28;19954;-80
2022/10/08 05:39:04;;;;;;;;;;;12.40;99.90;;;;;;8418035;28;19935;-79
2022/10/08 05:43:05;;;;;;;;;;;12.30;99.90;;;;;;8419218;27;21875;-79
2022/10/08 05:47:07;;;;;;;;;;;12.30;99.90;;;;;;8402899;28;19928;-79
2022/10/08 05:51:10;;;;;;;;;;;12.30;99.90;;;;;;8391922;28;19919;-79
2022/10/08 05:55:12;;;;;;;;;;;12.30;99.90;;;;;;8420277;28;19920;-80
2022/10/08 05:59:18;;;;;;;;;;;12.30;99.90;;;;;;8426069;28;19946;-80
2022/10/08 06:03:19;;;;;;;;;;;12.20;99.90;;;;;;8420133;28;21735;-80
2022/10/08 06:07:21;;;;;;;;;;;12.20;99.90;;;;;;8429666;28;19935;-80
2022/10/08 06:11:23;;;;;;;;;;;12.20;99.90;;;;;;8424748;28;19969;-80
2022/10/08 06:15:25;;;;;;;;;;;12.10;99.90;;;;;;8430019;27;19924;-79
2022/10/08 06:19:26;;;;;;;;;;;12.10;99.90;;;;;;8431035;28;19919;-79
2022/10/08 06:23:28;;;;;;;;;;;12.10;99.90;;;;;;8428152;28;19921;-79
2022/10/08 06:27:30;;;;;;;;;;;12.20;99.90;;;;;;8423438;28;19924;-79
2022/10/08 06:31:33;;;;;;;;;;;12.20;99.90;;;;;;8434030;28;19920;-79
2022/10/08 06:35:35;;;;;;;;;;;12.20;99.90;;;;;;8429098;28;20409;-79
2022/10/08 06:39:37;;;;;;;;;;;12.20;99.90;;;;;;8427094;28;19940;-79
2022/10/08 06:43:38;;;;;;;;;;;12.30;99.90;;;;;;8427087;28;20265;-79
2022/10/08 06:47:40;;;;;;;;;;;12.30;99.90;;;;;;8424688;28;19920;-80
2022/10/08 06:51:41;;;;;;;;;;;12.40;99.90;;;;;;8406520;28;19943;-79
2022/10/08 06:55:43;;;;;;;;;;;12.40;99.90;;;;;;8397189;28;19932;-80
2022/10/08 06:59:45;;;;;;;;;;;12.40;99.90;;;;;;8411393;28;19956;-80
2022/10/08 07:03:51;;;;;;;;;;;12.40;99.90;;;;;;8432791;28;19938;-79
2022/10/08 07:07:52;;;;;;;;;;;12.40;99.90;;;;;;8432021;28;19941;-79
2022/10/08 07:11:54;;;;;;;;;;;12.40;99.90;;;;;;8431077;28;20372;-80
2022/10/08 07:16:06;;;;;;;;;;;12.40;99.90;;;;;;8420935;28;19927;-79
2022/10/08 07:20:08;;;;;;;;;;;12.50;99.90;;;;;;8423881;28;20294;-80
2022/10/08 07:24:10;;;;;;;;;;;12.60;99.90;;;;;;8399633;28;19934;-79
2022/10/08 07:28:11;;;;;;;;;;;12.60;99.90;;;;;;8397205;28;20053;-80
2022/10/08 07:32:13;;;;;;;;;;;12.70;99.90;;;;;;8436095;28;19966;-80
2022/10/08 07:36:17;;;;;;;;;;;12.70;99.90;;;;;;8425014;28;19939;-80
2022/10/08 07:40:18;;;;;;;;;;;12.80;99.90;;;;;;8419939;28;19924;-81
2022/10/08 07:44:20;;;;;;;;;;;12.90;99.90;;;;;;8423160;28;19934;-81
2022/10/08 07:48:22;;;;;;;;;;;13.00;99.90;;;;;;8408434;28;19926;-80
2022/10/08 07:52:23;;;;;;;;;;;13.10;99.90;;;;;;8411999;28;19927;-80
2022/10/08 07:56:25;;;;;;;;;;;13.20;99.90;;;;;;8409991;28;19928;-81
2022/10/08 08:00:27;;;;;;;;;;;13.30;99.90;;;;;;8432888;28;19928;-80
2022/10/08 08:04:29;;;;;;;;;;;13.40;99.90;;;;;;8425285;28;20018;-80
2022/10/08 08:08:30;;;;;;;;;;;13.40;99.90;;;;;;8424461;28;19928;-80
2022/10/08 08:12:32;;;;;;;;;;;13.50;99.90;;;;;;8433055;28;19928;-80
2022/10/08 08:16:34;;;;;;;;;;;13.60;99.90;;;;;;8417832;28;19975;-80
2022/10/08 08:20:36;;;;;;;;;;;13.70;99.90;;;;;;8435362;28;19938;-79
2022/10/08 08:24:37;;;;;;;;;;;13.80;99.90;;;;;;8426176;28;19938;-79
2022/10/08 08:28:39;;;;;;;;;;;13.90;99.90;;;;;;8410768;28;19920;-80
2022/10/08 08:32:41;;;;;;;;;;;13.90;99.90;;;;;;8442047;28;20536;-80
2022/10/08 08:36:43;;;;;;;;;;;14.00;99.90;;;;;;8431594;28;20269;-80
2022/10/08 08:40:45;;;;;;;;;;;14.10;99.90;;;;;;8428239;28;19930;-80
2022/10/08 08:44:48;;;;;;;;;;;14.10;99.90;;;;;;8397738;28;19928;-80
2022/10/08 08:48:52;;;;;;;;;;;14.20;99.90;;;;;;8421763;28;20030;-79
2022/10/08 08:52:54;;;;;;;;;;;14.30;99.90;;;;;;8438748;28;19919;-80
2022/10/08 08:57:10;;;;;;;;;;;14.30;99.90;;;;;;8413916;28;19930;-80
2022/10/08 09:01:16;;;;;;;;;;;14.40;99.90;;;;;;8424359;28;19920;-80
2022/10/08 09:05:18;;;;;;;;;;;14.40;99.90;;;;;;8429665;28;19920;-79
2022/10/08 09:09:26;;;;;;;;;;;14.50;99.90;;;;;;8424203;28;19974;-78
2022/10/08 09:13:27;;;;;;;;;;;14.70;99.90;;;;;;8435033;27;19942;-81
2022/10/08 09:17:31;;;;;;;;;;;14.80;99.90;;;;;;8430825;28;20000;-79
2022/10/08 09:21:33;;;;;;;;;;;14.90;99.90;;;;;;8411290;28;19935;-81
2022/10/08 09:25:35;;;;;;;;;;;15.00;99.90;;;;;;8427120;28;19920;-80
2022/10/08 09:29:37;;;;;;;;;;;15.10;99.90;;;;;;8403244;28;19928;-79
2022/10/08 09:33:39;;;;;;;;;;;15.20;99.90;;;;;;8425740;28;19927;-80
2022/10/08 09:37:44;;;;;;;;;;;15.20;99.90;;;;;;8406963;28;19920;-79
2022/10/08 09:41:47;;;;;;;;;;;15.30;99.90;;;;;;8416789;28;19924;-80
2022/10/08 09:45:49;;;;;;;;;;;15.40;99.90;;;;;;8421264;28;19931;-79
2022/10/08 09:50:11;;;;;;;;;;;15.40;99.90;;;;;;8412885;28;20014;-79
2022/10/08 09:54:15;;;;;;;;;;;15.20;99.90;;;;;;8416422;28;19927;-80
2022/10/08 09:58:17;;;;;;;;;;;14.90;99.90;;;;;;8408834;28;20397;-81
2022/10/08 10:02:27;;;;;;;;;;;14.40;99.90;;;;;;8429379;28;20026;-80
2022/10/08 10:06:35;;;;;;;;;;;14.00;99.90;;;;;;8414846;28;19938;-80
2022/10/08 10:10:38;;;;;;;;;;;13.80;99.90;;;;;;8425094;28;20389;-80
2022/10/08 10:14:45;;;;;;;;;;;14.00;99.90;;;;;;8432361;28;19923;-80
2022/10/08 10:18:49;;;;;;;;;;;14.40;99.90;;;;;;8415369;28;19950;-80
2022/10/08 10:22:56;;;;;;;;;;;15.10;99.90;;;;;;8426864;28;19949;-80
2022/10/08 10:27:18;;;;;;;;;;;15.70;99.90;;;;;;8425521;28;19928;-80
2022/10/08 10:31:19;;;;;;;;;;;15.90;99.90;;;;;;8415649;28;20438;-80
2022/10/08 10:35:26;;;;;;;;;;;15.60;99.90;;;;;;8432901;28;19924;-80
2022/10/08 10:39:27;;;;;;;;;;;15.20;99.90;;;;;;8430540;28;19954;-79
2022/10/08 10:43:41;;;;;;;;;;;14.90;99.90;;;;;;8422673;28;19927;-79
2022/10/08 10:47:43;;;;;;;;;;;14.70;99.90;;;;;;8419469;28;19924;-79
2022/10/08 10:52:03;;;;;;;;;;;14.50;99.90;;;;;;8443743;28;19924;-79
2022/10/08 10:56:05;;;;;;;;;;;14.60;99.90;;;;;;8431667;28;20326;-80
2022/10/08 11:00:07;;;;;;;;;;;15.10;99.90;;;;;;8429866;28;19934;-80
2022/10/08 11:04:08;;;;;;;;;;;15.60;99.90;;;;;;8415529;28;19920;-80
2022/10/08 11:08:16;;;;;;;;;;;16.20;99.90;;;;;;8414909;28;19930;-80
2022/10/08 11:12:33;;;;;;;;;;;16.60;99.90;;;;;;8406170;28;19923;-79
2022/10/08 11:16:42;;;;;;;;;;;16.70;99.90;;;;;;8400447;28;19920;-81
2022/10/08 11:20:53;;;;;;;;;;;16.70;99.90;;;;;;8432560;28;20010;-80
2022/10/08 11:25:03;;;;;;;;;;;16.60;99.90;;;;;;8433411;28;20375;-79
2022/10/08 11:29:06;;;;;;;;;;;16.40;99.90;;;;;;8428700;28;19923;-80
2022/10/08 11:33:10;;;;;;;;;;;16.10;99.90;;;;;;8434524;28;19926;-80
2022/10/08 11:37:22;;;;;;;;;;;15.90;99.90;;;;;;8430243;28;19933;-80
2022/10/08 11:41:28;;;;;;;;;;;16.10;99.90;;;;;;8436984;28;19928;-80
2022/10/08 11:45:34;;;;;;;;;;;16.60;99.90;;;;;;8421446;28;19942;-79
2022/10/08 11:49:36;;;;;;;;;;;17.10;99.90;;;;;;8422680;28;19924;-80
2022/10/08 11:53:38;;;;;;;;;;;17.00;99.90;;;;;;8428412;28;19920;-79
2022/10/08 11:57:39;;;;;;;;;;;16.90;99.90;;;;;;8389868;28;19920;-80
2022/10/08 12:02:03;;;;;;;;;;;16.90;99.90;;;;;;8392483;28;19936;-80
2022/10/08 12:06:23;;;;;;;;;;;17.00;99.90;;;;;;8376738;28;20070;-80
2022/10/08 12:10:28;;;;;;;;;;;17.10;99.90;;;;;;8394247;28;19924;-80
2022/10/08 12:14:30;;;;;;;;;;;17.20;99.90;;;;;;8403170;28;20371;-80
2022/10/08 12:18:41;;;;;;;;;;;17.10;99.90;;;;;;8394779;28;19930;-80
2022/10/08 12:22:52;;;;;;;;;;;17.00;99.90;;;;;;8399108;28;19930;-80
2022/10/08 12:27:16;;;;;;;;;;;17.00;99.90;;;;;;8390462;28;19920;-79
2022/10/08 12:31:24;;;;;;;;;;;16.90;99.90;;;;;;8393520;28;19954;-79
2022/10/08 12:35:26;;;;;;;;;;;16.90;99.90;;;;;;8389267;28;20363;-79
2022/10/08 12:39:27;;;;;;;;;;;16.80;99.90;;;;;;8380455;28;20011;-80
2022/10/08 12:43:33;;;;;;;;;;;16.80;99.90;;;;;;8406497;28;19934;-81
2022/10/08 12:47:39;;;;;;;;;;;16.80;99.90;;;;;;8374690;28;19930;-80
2022/10/08 12:51:59;;;;;;;;;;;16.80;99.90;;;;;;8398990;28;19924;-79
2022/10/08 12:56:01;;;;;;;;;;;16.80;99.90;;;;;;8395071;28;20379;-81
2022/10/08 13:00:22;;;;;;;;;;;16.90;99.90;;;;;;8392034;28;19977;-78
2022/10/08 13:04:25;;;;;;;;;;;16.80;99.90;;;;;;8389634;28;19928;-80
2022/10/08 13:08:29;;;;;;;;;;;16.80;99.90;;;;;;8392410;28;20258;-79
2022/10/08 13:12:31;;;;;;;;;;;16.80;99.90;;;;;;8400302;28;19926;-80
2022/10/08 13:16:44;;;;;;;;;;;16.80;99.90;;;;;;8392275;28;20299;-79
2022/10/08 13:20:59;;;;;;;;;;;16.90;99.90;;;;;;8399675;28;20417;-80
2022/10/08 13:25:02;;;;;;;;;;;17.00;99.90;;;;;;8393754;28;19945;-79
2022/10/08 13:29:22;;;;;;;;;;;17.00;99.90;;;;;;8402937;28;19920;-78
2022/10/08 13:33:26;;;;;;;;;;;17.00;99.90;;;;;;8401161;28;19928;-79
2022/10/08 13:37:31;;;;;;;;;;;17.00;99.90;;;;;;8382199;28;20406;-79
2022/10/08 13:41:33;;;;;;;;;;;17.10;99.90;;;;;;8397570;28;21021;-80
2022/10/08 13:45:37;;;;;;;;;;;17.20;99.90;;;;;;8394272;28;20346;-79
2022/10/08 13:49:39;;;;;;;;;;;17.40;99.90;;;;;;8395765;28;19931;-79
2022/10/08 13:53:44;;;;;;;;;;;17.30;99.90;;;;;;8397870;28;19927;-79
2022/10/08 13:57:45;;;;;;;;;;;16.90;99.90;;;;;;8396676;28;19967;-78
2022/10/08 14:01:48;;;;;;;;;;;16.70;99.90;;;;;;8391397;28;20007;-79
2022/10/08 14:05:49;;;;;;;;;;;16.50;99.90;;;;;;8401395;28;19958;-79
2022/10/08 14:09:51;;;;;;;;;;;16.40;99.90;;;;;;8381183;28;20302;-80
2022/10/08 14:13:53;;;;;;;;;;;16.70;99.90;;;;;;8403308;28;19929;-79
2022/10/08 14:17:55;;;;;;;;;;;16.80;99.90;;;;;;8397981;28;20006;-79
2022/10/08 14:21:56;;;;;;;;;;;17.20;99.90;;;;;;8396505;28;19924;-79
2022/10/08 14:25:58;;;;;;;;;;;17.30;99.90;;;;;;8388919;28;20552;-79
2022/10/08 14:29:59;;;;;;;;;;;17.40;99.90;;;;;;8394299;28;19923;-80
2022/10/08 14:39:05;;;;;;;;;;;17.10;99.90;;;;;;8393561;28;19969;-80
2022/10/08 14:43:07;;;;;;;;;;;17.10;99.90;;;;;;8405837;28;20390;-79
2022/10/08 14:47:08;;;;;;;;;;;17.10;99.90;;;;;;8395602;28;19928;-79
2022/10/08 14:51:11;;;;;;;;;;;17.20;99.90;;;;;;8394528;28;19936;-80
2022/10/08 14:55:13;;;;;;;;;;;17.20;99.90;;;;;;8400073;28;19924;-80
2022/10/08 14:59:15;;;;;;;;;;;17.10;99.90;;;;;;8393401;28;20014;-80
2022/10/08 15:03:16;;;;;;;;;;;16.80;99.90;;;;;;8397107;28;19920;-79
2022/10/08 15:07:18;;;;;;;;;;;16.60;99.90;;;;;;8392115;28;19932;-79
2022/10/08 15:11:20;;;;;;;;;;;16.30;99.90;;;;;;8398494;28;20336;-79
2022/10/08 15:15:21;;;;;;;;;;;16.30;99.90;;;;;;8404488;28;20551;-80
2022/10/08 15:19:23;;;;;;;;;;;16.20;99.90;;;;;;8384478;28;20003;-80
2022/10/08 15:23:25;;;;;;;;;;;16.30;99.90;;;;;;8390423;28;19959;-79
2022/10/08 15:27:27;;;;;;;;;;;16.30;99.90;;;;;;8394259;28;19920;-80
2022/10/08 15:31:28;;;;;;;;;;;16.40;99.90;;;;;;8391381;28;19924;-79
2022/10/08 15:35:33;;;;;;;;;;;16.60;99.90;;;;;;8385680;28;19990;-81
2022/10/08 15:39:35;;;;;;;;;;;16.60;99.90;;;;;;8396291;28;21077;-79
2022/10/08 15:43:37;;;;;;;;;;;16.70;99.90;;;;;;8387243;28;19920;-80
2022/10/08 15:47:38;;;;;;;;;;;16.70;99.90;;;;;;8396381;28;19946;-80
2022/10/08 15:51:40;;;;;;;;;;;16.70;99.90;;;;;;8390204;28;20061;-79
2022/10/08 15:55:41;;;;;;;;;;;16.50;99.90;;;;;;8397385;28;19992;-80
2022/10/08 15:59:43;;;;;;;;;;;16.30;99.90;;;;;;8390503;28;19926;-79
2022/10/08 16:03:46;;;;;;;;;;;16.20;99.90;;;;;;8376315;28;19926;-79
2022/10/08 16:07:47;;;;;;;;;;;16.10;99.90;;;;;;8395749;28;19962;-79
2022/10/08 16:11:50;;;;;;;;;;;16.00;99.90;;;;;;8397374;28;19931;-79
2022/10/08 16:15:51;;;;;;;;;;;15.90;99.90;;;;;;8400197;28;19928;-79
2022/10/08 16:19:53;;;;;;;;;;;15.80;99.90;;;;;;8386811;28;19928;-80
2022/10/08 16:23:55;;;;;;;;;;;15.80;99.90;;;;;;8375860;28;20214;-80
2022/10/08 16:27:58;;;;;;;;;;;15.70;99.90;;;;;;8396457;28;20011;-80
2022/10/08 16:31:59;;;;;;;;;;;15.60;99.90;;;;;;8390478;28;19943;-80
2022/10/08 16:36:02;;;;;;;;;;;15.50;99.90;;;;;;8393915;28;19974;-80
2022/10/08 16:40:04;;;;;;;;;;;15.40;99.90;;;;;;8396127;28;20468;-80
2022/10/08 16:44:10;;;;;;;;;;;15.40;99.90;;;;;;8398466;28;20375;-80
2022/10/08 16:48:13;;;;;;;;;;;15.30;99.90;;;;;;8393851;28;19982;-80
2022/10/08 16:52:15;;;;;;;;;;;15.30;99.90;;;;;;8399778;28;20333;-79
2022/10/08 16:56:16;;;;;;;;;;;15.20;99.90;;;;;;8402638;28;19928;-80
2022/10/08 17:00:18;;;;;;;;;;;15.20;99.90;;;;;;8394101;28;20284;-80
2022/10/08 17:04:21;;;;;;;;;;;15.10;99.90;;;;;;8397170;28;19935;-80
2022/10/08 17:08:22;;;;;;;;;;;15.10;99.90;;;;;;8397837;28;19928;-80
2022/10/08 17:12:24;;;;;;;;;;;15.00;99.90;;;;;;8404889;28;19930;-80
2022/10/08 17:16:27;;;;;;;;;;;15.00;99.90;;;;;;8396051;28;20010;-80
2022/10/08 17:20:28;;;;;;;;;;;15.00;99.90;;;;;;8392017;28;19931;-80
2022/10/08 17:24:30;;;;;;;;;;;14.90;99.90;;;;;;8399551;28;19920;-79
2022/10/08 17:28:33;;;;;;;;;;;14.90;99.90;;;;;;8392974;28;19942;-80
2022/10/08 17:32:35;;;;;;;;;;;14.80;99.90;;;;;;8397507;28;20078;-80
2022/10/08 17:36:37;;;;;;;;;;;14.80;99.90;;;;;;8403380;28;19920;-80
2022/10/08 17:40:39;;;;;;;;;;;14.70;99.90;;;;;;8378668;28;19924;-80
2022/10/08 17:44:40;;;;;;;;;;;14.60;99.90;;;;;;8400504;28;19930;-80
2022/10/08 17:48:42;;;;;;;;;;;14.50;99.90;;;;;;8400049;28;19924;-80
2022/10/08 17:52:44;;;;;;;;;;;14.40;99.90;;;;;;8395097;28;20684;-80
2022/10/08 17:56:46;;;;;;;;;;;14.20;99.90;;;;;;8392158;28;19928;-80
2022/10/08 18:00:48;;;;;;;;;;;14.10;99.90;;;;;;8398514;28;19930;-80
2022/10/08 18:04:50;;;;;;;;;;;14.00;99.90;;;;;;8400301;28;19930;-79
2022/10/08 18:08:55;;;;;;;;;;;13.80;99.90;;;;;;8404221;28;19931;-80
2022/10/08 18:12:57;;;;;;;;;;;13.70;99.90;;;;;;8404662;28;20014;-80
2022/10/08 18:16:58;;;;;;;;;;;13.70;99.90;;;;;;8400860;28;19935;-79
2022/10/08 18:21:00;;;;;;;;;;;13.60;99.90;;;;;;8403025;28;20684;-80
2022/10/08 18:25:03;;;;;;;;;;;13.50;99.90;;;;;;8393420;28;19927;-80
2022/10/08 18:29:09;;;;;;;;;;;13.40;99.90;;;;;;8405094;28;20332;-80
2022/10/08 18:43:25;;;;;;;;;;;13.20;99.90;;;;;;8398312;28;19915;-79
2022/10/08 18:47:27;;;;;;;;;;;13.10;99.90;;;;;;8407987;27;19936;-80
2022/10/08 18:51:29;;;;;;;;;;;13.00;99.90;;;;;;8398391;28;21470;-79
2022/10/08 18:55:31;;;;;;;;;;;12.90;99.90;;;;;;8406083;28;19924;-80
2022/10/08 18:59:33;;;;;;;;;;;12.90;99.90;;;;;;8406753;27;20298;-80
2022/10/08 19:03:35;;;;;;;;;;;12.80;99.90;;;;;;8372910;28;19920;-79
2022/10/08 19:07:36;;;;;;;;;;;12.80;99.90;;;;;;8387567;28;20010;-80
2022/10/08 19:11:39;;;;;;;;;;;12.70;99.90;;;;;;8390387;28;19920;-80
2022/10/08 19:25:52;;;;;;;;;;;12.50;99.90;;;;;;8402996;28;19974;-80
2022/10/08 19:29:54;;;;;;;;;;;12.40;99.90;;;;;;8402653;28;19926;-80
2022/10/08 19:33:57;;;;;;;;;;;12.40;99.90;;;;;;8399842;28;19931;-80
2022/10/08 19:37:58;;;;;;;;;;;12.40;99.90;;;;;;8395563;28;20030;-80
2022/10/08 19:42:00;;;;;;;;;;;12.30;99.90;;;;;;8379805;28;19928;-80
2022/10/08 19:46:02;;;;;;;;;;;12.20;99.90;;;;;;8402088;28;20271;-80
2022/10/08 19:50:04;;;;;;;;;;;12.20;99.90;;;;;;8405935;28;19948;-80
2022/10/08 19:54:06;;;;;;;;;;;12.10;99.90;;;;;;8386381;28;19947;-80
2022/10/08 19:58:08;;;;;;;;;;;12.10;99.90;;;;;;8395029;28;19930;-80
2022/10/08 20:02:10;;;;;;;;;;;12.00;99.90;;;;;;8392955;28;19924;-80
2022/10/08 20:06:13;;;;;;;;;;;11.90;99.90;;;;;;8368884;28;19921;-79
2022/10/08 20:10:15;;;;;;;;;;;11.90;99.90;;;;;;8380539;28;19983;-80
2022/10/08 20:14:16;;;;;;;;;;;11.90;99.90;;;;;;8380736;28;20289;-80
2022/10/08 20:18:18;;;;;;;;;;;11.80;99.90;;;;;;8387407;28;20244;-79
2022/10/08 20:22:19;;;;;;;;;;;11.80;99.90;;;;;;8393634;28;19934;-79
2022/10/08 20:26:22;;;;;;;;;;;11.70;99.90;;;;;;8390676;28;19928;-79
2022/10/08 20:30:24;;;;;;;;;;;11.60;99.90;;;;;;8391171;28;19924;-80
2022/10/08 20:34:27;;;;;;;;;;;11.60;99.90;;;;;;8388399;28;20257;-80
2022/10/08 20:38:29;;;;;;;;;;;11.50;99.90;;;;;;8396857;28;19919;-80
2022/10/08 20:42:31;;;;;;;;;;;11.50;99.90;;;;;;8378852;28;20376;-80
2022/10/08 20:46:33;;;;;;;;;;;11.40;99.90;;;;;;8406354;28;20007;-80
2022/10/08 20:50:35;;;;;;;;;;;11.30;99.90;;;;;;8392575;28;19955;-80
2022/10/08 20:54:37;;;;;;;;;;;11.30;99.90;;;;;;8392542;28;19920;-80
2022/10/08 20:58:38;;;;;;;;;;;11.20;99.90;;;;;;8381643;28;20006;-80
2022/10/08 21:02:40;;;;;;;;;;;11.20;99.90;;;;;;8405534;28;19930;-80
2022/10/08 21:06:43;;;;;;;;;;;11.10;99.90;;;;;;8408424;28;19923;-80
2022/10/08 21:10:45;;;;;;;;;;;11.10;99.90;;;;;;8426859;28;20002;-80
2022/10/08 21:14:46;;;;;;;;;;;11.00;99.90;;;;;;8437517;28;20263;-80
2022/10/08 21:18:49;;;;;;;;;;;11.00;99.90;;;;;;8411312;28;19926;-79
2022/10/08 21:22:51;;;;;;;;;;;11.00;99.90;;;;;;8428926;28;19934;-80
2022/10/08 21:26:52;;;;;;;;;;;10.90;99.90;;;;;;8418054;28;20063;-80
2022/10/08 21:30:54;;;;;;;;;;;10.80;99.90;;;;;;8417800;28;19926;-80
2022/10/08 21:34:56;;;;;;;;;;;10.80;99.90;;;;;;8427485;28;19966;-80
2022/10/08 21:38:58;;;;;;;;;;;10.80;99.90;;;;;;8434939;28;20390;-80
2022/10/08 21:43:00;;;;;;;;;;;10.70;99.90;;;;;;8430214;28;20315;-80
2022/10/08 21:47:01;;;;;;;;;;;10.60;99.90;;;;;;8430435;28;19925;-79
2022/10/08 21:51:14;;;;;;;;;;;10.60;99.90;;;;;;8442494;28;19919;-80
2022/10/08 21:55:16;;;;;;;;;;;10.50;99.90;;;;;;8437363;28;19928;-80
2022/10/08 21:59:17;;;;;;;;;;;10.50;99.90;;;;;;8436024;28;20018;-79
2022/10/08 22:03:20;;;;;;;;;;;10.40;99.90;;;;;;8439558;28;19925;-80
2022/10/08 22:07:21;;;;;;;;;;;10.40;99.90;;;;;;8415383;28;19919;-80
2022/10/08 22:11:23;;;;;;;;;;;10.30;99.90;;;;;;8439062;28;19927;-80
2022/10/08 22:15:25;;;;;;;;;;;10.30;99.90;;;;;;8410773;28;20011;-80
2022/10/08 22:19:27;;;;;;;;;;;10.20;99.90;;;;;;8425044;28;20294;-80
2022/10/08 22:23:29;;;;;;;;;;;10.20;99.90;;;;;;8424138;28;19920;-80
2022/10/08 22:27:30;;;;;;;;;;;10.10;99.90;;;;;;8431469;28;19930;-80
2022/10/08 22:31:32;;;;;;;;;;;10.10;99.90;;;;;;8420645;28;19920;-79
2022/10/08 22:35:34;;;;;;;;;;;10.10;99.90;;;;;;8437921;28;19926;-80
2022/10/08 22:49:44;;;;;;;;;;;10.00;99.90;;;;;;8427707;28;19923;-80
2022/10/08 22:53:46;;;;;;;;;;;9.90;99.90;;;;;;8437315;28;19932;-79
2022/10/08 22:57:47;;;;;;;;;;;9.90;99.90;;;;;;8415375;28;20272;-80
2022/10/08 23:01:49;;;;;;;;;;;9.80;99.90;;;;;;8437751;28;20019;-80
2022/10/08 23:06:04;;;;;;;;;;;9.80;99.90;;;;;;8429794;28;20496;-79
2022/10/08 23:10:06;;;;;;;;;;;9.70;99.90;;;;;;8442632;28;19926;-80
2022/10/08 23:14:08;;;;;;;;;;;9.70;99.90;;;;;;8423017;28;19928;-80
2022/10/08 23:18:10;;;;;;;;;;;9.60;99.90;;;;;;8430079;28;19923;-80
2022/10/08 23:22:11;;;;;;;;;;;9.50;99.90;;;;;;8435984;28;19923;-80
2022/10/08 23:26:13;;;;;;;;;;;9.50;99.90;;;;;;8431681;28;19923;-80
2022/10/08 23:30:15;;;;;;;;;;;9.50;99.90;;;;;;8434728;28;19924;-80
2022/10/08 23:34:36;;;;;;;;;;;9.40;99.90;;;;;;8425530;28;19919;-80
2022/10/08 23:38:38;;;;;;;;;;;9.40;99.90;;;;;;8415827;28;19926;-80
2022/10/08 23:42:40;;;;;;;;;;;9.30;99.90;;;;;;8441875;28;19926;-79
2022/10/08 23:46:41;;;;;;;;;;;9.30;99.90;;;;;;8421407;28;20007;-80
2022/10/08 23:50:47;;;;;;;;;;;9.30;99.90;;;;;;8419810;28;19928;-80
2022/10/08 23:54:48;;;;;;;;;;;9.20;99.90;;;;;;8404121;28;19920;-80
2022/10/08 23:58:50;;;;;;;;;;;9.20;99.90;;;;;;8434833;28;19928;-79
